Warning: Javascript must be enabled to use all the features on this page!


Page Loading - Please Wait...

Click to hideNews Bulletins

USGS 04189260 Blanchard River at Ottawa OH

PROVISIONAL DATA SUBJECT TO REVISION

Click to hidestation-specific text
Station operated in cooperation with the Village of Ottawa and the National Streamflow Information Program.
 04189260 Blanchard River at Ottawa, OH
 LOCATION.--Lat 41°01'01", long 84°02'49", Putnam County, OH, Hydrologic 
     Unit 04100008, on right bank at downstream side of Oak Street, 200 ft. upstream 
     of B&O railroad bridge, 800 ft. upstream of SR65 bridge, 1,200 ft. southeast of 
     intersection of SR65 and US RT224 in the village of Ottawa, OH.
 DRAINAGE AREA.--628 mi2.
 PERIOD OF RECORD.--October 2009 to current water year.
Want to learn more about areas near this gage that are inundated during flooding? See the USGS flood-inundation mapper.

Boating safety tips
Available Parameters Available Period
All 2 Available Parameters for this site
  
00065 Gage height 2016-03-02  2016-06-30
00060 Discharge 2009-10-01  2016-06-30

Graph
Graph w/ stats
Graph w/o stats
Graph w/ (up to 3) parms
Table
Tab-separated
Days  (7)
 

  -- or --
Begin date
 

End date
 

Summary of all available data for this site
Instantaneous-data availability statement
Gage height, feet
TIMEJun 23Jun 24Jun 25Jun 26Jun 27Jun 28Jun 29Jun 30
00:00 EDT5.40P  19.31P  21.07P  18.43P  12.96P  14.65P  13.89P  10.26P  
00:30 EDT5.60P  19.42P  21.02P  18.35P  12.80P  14.71P  13.86P  10.16P  
01:00 EDT5.81P  19.57P  21.02P  18.27P  12.65P  14.73P  13.82P  10.07P  
01:30 EDT6.10P  19.67P  21.00P  18.21P  12.50P  14.77P  13.78P  9.98P  
02:00 EDT6.30P  19.80P  20.93P  18.16P  12.35P  14.79P  13.75P  9.90P  
02:30 EDT6.50P  19.95P  20.90P  18.10P  12.20P  14.83P  13.71P  9.80P  
03:00 EDT6.98P  20.07P  20.89P  18.04P  12.04P  14.85P  13.66P  9.72P  
03:30 EDT7.34P  20.22P  20.84P  17.96P  11.89P  14.87P  13.63P  9.64P  
04:00 EDT7.74P  20.34P  20.80P  17.90P  11.75P  14.89P  13.59P  9.56P  
04:30 EDT8.20P  20.43P  20.76P  17.83P  11.61P  14.91P  13.56P  9.48P  
05:00 EDT8.77P  20.56P  20.71P  17.74P  11.47P  14.91P  13.51P  9.40P  
05:30 EDT9.48P  20.69P  20.66P  17.69P  11.33P  14.92P  13.48P  9.33P  
06:00 EDT10.30P  20.81P  20.63P  17.61P  11.20P  14.92P  13.44P  9.26P  
06:30 EDT11.12P  20.90P  20.58P  17.54P  11.07P  14.94P  13.40P  9.19P  
07:00 EDT11.89P  20.98P  20.51P  17.45P  10.95P  14.93P  13.35P  9.12P  
07:30 EDT12.56P  21.07P  20.49P  17.38P  10.83P  14.93P  13.30P  9.05P  
08:00 EDT13.14P  21.14P  20.41P  17.30P  10.71P  14.94P  13.25P   
08:30 EDT13.61P  21.23P  20.39P  17.21P  10.60P  14.91P  13.19P   
09:00 EDT14.04P  21.26P  20.33P  17.12P  10.50P  14.91P  13.13P   
09:30 EDT14.41P  21.34P  20.27P  17.00P  10.40P  14.89P  13.07P   
10:00 EDT14.75P  21.39P  20.21P  16.92P  10.30P  14.87P  13.01P   
10:30 EDT15.03P  21.43P  20.15P  16.80P  10.21P  14.86P  12.94P   
11:00 EDT15.31P  21.47P  20.10P  16.70P  10.19P  14.85P  12.86P   
11:30 EDT15.56P  21.49P  20.03P  16.59P  10.22P  14.82P  12.79P   
12:00 EDT15.79P  21.51P  19.98P  16.46P  10.34P  14.78P  12.70P   
12:30 EDT16.01P  21.52P  19.91P  16.34P  10.50P  14.77P  12.61P   
13:00 EDT16.20P  21.50P  19.87P  16.23P  10.69P  14.74P  12.52P   
13:30 EDT16.41P  21.50P  19.79P  16.09P  10.89P  14.71P  12.43P   
14:00 EDT16.60P  21.49P  19.71P  15.95P  11.07P  14.68P  12.34P   
14:30 EDT16.79P  21.50P  19.67P  15.83P  11.26P  14.65P  12.25P   
15:00 EDT16.96P  21.48P  19.62P  15.69P  11.47P  14.60P  12.14P   
15:30 EDT17.13P  21.46P  19.53P  15.54P  11.66P  14.58P  12.05P   
16:00 EDT17.30P  21.46P  19.47P  15.41P  11.87P  14.55P  11.94P   
16:30 EDT17.45P  21.41P  19.42P  15.26P  12.08P  14.48P  11.83P   
17:00 EDT17.62P  21.42P  19.34P  15.11P  12.28P  14.45P  11.73P   
17:30 EDT17.74P  21.41P  19.27P  14.97P  12.48P  14.43P  11.62P   
18:00 EDT17.89P  21.36P  19.21P  14.82P  12.70P  14.38P  11.52P   
18:30 EDT18.00P  21.35P  19.13P  14.66P  12.93P  14.35P  11.42P   
19:00 EDT18.15P  21.31P  19.08P  14.51P  13.16P  14.30P  11.30P   
19:30 EDT18.28P  21.29P  19.02P  14.36P  13.38P  14.26P  11.20P   
20:00 EDT18.39P  21.27P  18.97P  14.20P  13.58P  14.21P  11.09P   
20:30 EDT18.47P  21.25P  18.89P  14.05P  13.79P  14.16P  10.98P   
21:00 EDT18.64P  21.24P  18.81P  13.90P  13.96P  14.14P  10.87P   
21:30 EDT18.71P  21.23P  18.76P  13.74P  14.13P  14.09P  10.77P   
22:00 EDT18.86P  21.17P  18.69P  13.58P  14.29P  14.05P  10.66P   
22:30 EDT18.97P  21.18P  18.61P  13.43P  14.41P  14.01P  10.56P   
23:00 EDT19.09P  21.12P  18.55P  13.27P  14.50P  13.98P  10.46P   
23:30 EDT19.21P  21.13P  18.48P  13.12P  14.58P  13.94P  10.36P   
COUNT4848484848484816
MAX19.2121.5221.0718.4314.5814.9413.8910.26
MIN5.4019.3118.4813.1210.1913.9410.369.05

Explanation
  P  Provisional data subject to revision.